Time;durP1;ratioP1;P1;durP2;ratioP2;P2;SDS_P1;SDS_P2;PMS_P1;PMS_P2;Temp;Humidity;BMP_temperature;BMP_pressure;BME280_temperature;BME280_humidity;BME280_pressure;Samples;Min_cycle;Max_cycle;Signal;HPM_P1;HPM_P2
2021/07/28 00:02:23;;;;;;;;;;;18.70;99.90;;;;;;5047515;28;20025;-88
2021/07/28 00:04:49;;;;;;;;;;;18.70;99.90;;;;;;5047548;28;20381;-88
2021/07/28 00:07:14;;;;;;;;;;;18.70;99.90;;;;;;5048656;28;20448;-88
2021/07/28 00:09:40;;;;;;;;;;;18.70;99.90;;;;;;5047120;28;19920;-88
2021/07/28 00:12:05;;;;;;;;;;;18.70;99.90;;;;;;5047320;28;19909;-88
2021/07/28 00:14:31;;;;;;;;;;;18.70;99.90;;;;;;5047382;28;20277;-88
2021/07/28 00:16:58;;;;;;;;;;;18.70;99.90;;;;;;5035944;28;19964;-88
2021/07/28 00:19:28;;;;;;;;;;;18.70;99.90;;;;;;5034835;28;20366;-88
2021/07/28 00:24:38;;;;;;;;;;;18.70;99.90;;;;;;5035401;28;20365;-88
2021/07/28 00:27:04;;;;;;;;;;;18.70;99.90;;;;;;5033744;28;19940;-88
2021/07/28 00:29:30;;;;;;;;;;;18.70;99.90;;;;;;5034516;28;19923;-87
2021/07/28 00:31:55;;;;;;;;;;;18.70;99.90;;;;;;5033712;28;19913;-88
2021/07/28 00:34:21;;;;;;;;;;;18.70;99.90;;;;;;5034996;28;19947;-88
2021/07/28 00:36:47;;;;;;;;;;;18.70;99.90;;;;;;5033657;28;19935;-88
2021/07/28 00:39:12;;;;;;;;;;;18.70;99.90;;;;;;5033209;28;19960;-88
2021/07/28 00:41:42;;;;;;;;;;;18.70;99.90;;;;;;5033457;28;19944;-88
2021/07/28 00:44:07;;;;;;;;;;;18.70;99.90;;;;;;5034884;28;20525;-88
2021/07/28 00:46:33;;;;;;;;;;;18.70;99.90;;;;;;5033564;28;19909;-87
2021/07/28 00:48:58;;;;;;;;;;;18.70;99.90;;;;;;5033073;28;19916;-88
2021/07/28 00:51:24;;;;;;;;;;;18.70;99.90;;;;;;5037524;28;19975;-88
2021/07/28 00:53:50;;;;;;;;;;;18.70;99.90;;;;;;5035938;28;19944;-88
2021/07/28 00:56:16;;;;;;;;;;;18.70;99.90;;;;;;5037839;28;20156;-88
2021/07/28 00:58:42;;;;;;;;;;;18.70;99.90;;;;;;5033730;28;19916;-89
2021/07/28 01:01:08;;;;;;;;;;;18.70;99.90;;;;;;5033584;28;20289;-88
2021/07/28 01:03:33;;;;;;;;;;;18.70;99.90;;;;;;5033420;28;19909;-88
2021/07/28 01:05:59;;;;;;;;;;;18.70;99.90;;;;;;5033531;28;20304;-88
2021/07/28 01:08:24;;;;;;;;;;;18.70;99.90;;;;;;5033249;28;19977;-88
2021/07/28 01:10:50;;;;;;;;;;;18.70;99.90;;;;;;5034811;28;19955;-88
2021/07/28 01:13:16;;;;;;;;;;;18.60;99.90;;;;;;5033526;28;20381;-88
2021/07/28 01:15:43;;;;;;;;;;;18.60;99.90;;;;;;5034095;28;19991;-88
2021/07/28 01:18:11;;;;;;;;;;;18.70;99.90;;;;;;5033753;28;19913;-88
2021/07/28 01:20:38;;;;;;;;;;;18.60;99.90;;;;;;5033315;28;19979;-88
2021/07/28 01:23:05;;;;;;;;;;;18.60;99.90;;;;;;5033611;28;19910;-88
2021/07/28 01:25:34;;;;;;;;;;;18.60;99.90;;;;;;5034889;28;20028;-87
2021/07/28 01:28:00;;;;;;;;;;;18.60;99.90;;;;;;5033981;28;20361;-88
2021/07/28 01:30:26;;;;;;;;;;;18.60;99.90;;;;;;5033023;28;20370;-88
2021/07/28 01:32:52;;;;;;;;;;;18.60;99.90;;;;;;5033635;28;19909;-87
2021/07/28 01:35:19;;;;;;;;;;;18.60;99.90;;;;;;5034758;28;19909;-88
2021/07/28 01:37:45;;;;;;;;;;;18.60;99.90;;;;;;5033826;28;19978;-88
2021/07/28 01:40:11;;;;;;;;;;;18.60;99.90;;;;;;5034617;28;19913;-88
2021/07/28 01:42:43;;;;;;;;;;;18.60;99.90;;;;;;5033486;28;19909;-88
2021/07/28 01:45:10;;;;;;;;;;;18.60;99.90;;;;;;5032673;28;20393;-87
2021/07/28 01:47:35;;;;;;;;;;;18.60;99.90;;;;;;5032456;28;19999;-88
2021/07/28 01:50:01;;;;;;;;;;;18.60;99.90;;;;;;5033405;28;19952;-87
2021/07/28 01:52:26;;;;;;;;;;;18.60;99.90;;;;;;5032368;28;19913;-87
2021/07/28 01:54:52;;;;;;;;;;;18.60;99.90;;;;;;5032601;28;19909;-88
2021/07/28 01:57:17;;;;;;;;;;;18.50;99.90;;;;;;5032388;28;19963;-87
2021/07/28 01:59:43;;;;;;;;;;;18.60;99.90;;;;;;5032073;28;19955;-88
2021/07/28 02:02:08;;;;;;;;;;;18.50;99.90;;;;;;5032251;28;20350;-87
2021/07/28 02:04:34;;;;;;;;;;;18.50;99.90;;;;;;5032151;28;20012;-88
2021/07/28 02:06:59;;;;;;;;;;;18.50;99.90;;;;;;5033197;28;20317;-87
2021/07/28 02:09:25;;;;;;;;;;;18.50;99.90;;;;;;5031692;28;19916;-88
2021/07/28 02:11:50;;;;;;;;;;;18.50;99.90;;;;;;5032633;28;19917;-88
2021/07/28 02:14:16;;;;;;;;;;;18.50;99.90;;;;;;5032835;28;20361;-88
2021/07/28 02:16:41;;;;;;;;;;;18.50;99.90;;;;;;5034443;28;20374;-88
2021/07/28 02:19:07;;;;;;;;;;;18.50;99.90;;;;;;5032868;28;19914;-88
2021/07/28 02:21:33;;;;;;;;;;;18.50;99.90;;;;;;5032873;28;19915;-87
2021/07/28 02:23:59;;;;;;;;;;;18.50;99.90;;;;;;5032388;28;19953;-87
2021/07/28 02:26:25;;;;;;;;;;;18.60;99.90;;;;;;5032697;28;19913;-88
2021/07/28 02:28:52;;;;;;;;;;;18.60;99.90;;;;;;5033203;28;20277;-87
2021/07/28 02:31:18;;;;;;;;;;;18.50;99.90;;;;;;5033595;28;20011;-87
2021/07/28 02:33:43;;;;;;;;;;;18.50;99.90;;;;;;5032841;28;19945;-88
2021/07/28 02:36:09;;;;;;;;;;;18.50;99.90;;;;;;5032372;28;20384;-88
2021/07/28 02:38:35;;;;;;;;;;;18.50;99.90;;;;;;5030060;28;20412;-88
2021/07/28 02:41:00;;;;;;;;;;;18.50;99.90;;;;;;5031605;28;19909;-88
2021/07/28 02:43:26;;;;;;;;;;;18.50;99.90;;;;;;5031655;28;20370;-88
2021/07/28 02:45:51;;;;;;;;;;;18.50;99.90;;;;;;5031546;28;19917;-88
2021/07/28 02:48:17;;;;;;;;;;;18.50;99.90;;;;;;5031254;28;19940;-88
2021/07/28 02:50:42;;;;;;;;;;;18.50;99.90;;;;;;5030949;28;20388;-89
2021/07/28 02:53:08;;;;;;;;;;;18.50;99.90;;;;;;5031425;28;20043;-88
2021/07/28 02:55:33;;;;;;;;;;;18.50;99.90;;;;;;5032526;28;19909;-88
2021/07/28 02:57:59;;;;;;;;;;;18.50;99.90;;;;;;5031271;28;19913;-88
2021/07/28 03:00:24;;;;;;;;;;;18.50;99.90;;;;;;5030887;28;20270;-88
2021/07/28 03:02:50;;;;;;;;;;;18.50;99.90;;;;;;5031211;28;19910;-88
2021/07/28 03:05:15;;;;;;;;;;;18.50;99.90;;;;;;5031131;28;19995;-88
2021/07/28 03:07:41;;;;;;;;;;;18.50;99.90;;;;;;5031081;28;19909;-88
2021/07/28 03:10:07;;;;;;;;;;;18.50;99.90;;;;;;5030874;28;20277;-88
2021/07/28 03:12:32;;;;;;;;;;;18.50;99.90;;;;;;5031024;28;19909;-88
2021/07/28 03:14:58;;;;;;;;;;;18.50;99.90;;;;;;5031274;28;20436;-88
2021/07/28 03:17:23;;;;;;;;;;;18.50;99.90;;;;;;5031261;28;20293;-88
2021/07/28 03:19:49;;;;;;;;;;;18.50;99.90;;;;;;5030569;28;20533;-88
2021/07/28 03:22:14;;;;;;;;;;;18.50;99.90;;;;;;5031171;28;20177;-88
2021/07/28 03:24:40;;;;;;;;;;;18.50;99.90;;;;;;5030866;28;19913;-88
2021/07/28 03:27:05;;;;;;;;;;;18.40;99.90;;;;;;5031040;28;20333;-88
2021/07/28 03:29:31;;;;;;;;;;;18.50;99.90;;;;;;5031874;28;19971;-87
2021/07/28 03:31:56;;;;;;;;;;;18.50;99.90;;;;;;5030853;28;20389;-89
2021/07/28 03:34:22;;;;;;;;;;;18.40;99.90;;;;;;5030982;28;20404;-88
2021/07/28 03:36:47;;;;;;;;;;;18.40;99.90;;;;;;5032010;28;19916;-88
2021/07/28 03:39:13;;;;;;;;;;;18.40;99.90;;;;;;5030682;28;19913;-88
2021/07/28 03:41:38;;;;;;;;;;;18.40;99.90;;;;;;5032143;28;20329;-88
2021/07/28 03:44:04;;;;;;;;;;;18.40;99.90;;;;;;5030773;28;19920;-88
2021/07/28 03:46:29;;;;;;;;;;;18.40;99.90;;;;;;5031920;28;19910;-89
2021/07/28 03:48:55;;;;;;;;;;;18.40;99.90;;;;;;5030178;28;19909;-88
2021/07/28 03:51:20;;;;;;;;;;;18.40;99.90;;;;;;5033702;28;20285;-88
2021/07/28 03:53:46;;;;;;;;;;;18.40;99.90;;;;;;5034560;28;19909;-88
2021/07/28 03:56:11;;;;;;;;;;;18.40;99.90;;;;;;5034446;28;19960;-88
2021/07/28 03:58:37;;;;;;;;;;;18.40;99.90;;;;;;5034546;28;20233;-88
2021/07/28 04:01:02;;;;;;;;;;;18.40;99.90;;;;;;5034203;28;20326;-89
2021/07/28 04:03:28;;;;;;;;;;;18.40;99.90;;;;;;5035513;28;19909;-89
2021/07/28 04:05:54;;;;;;;;;;;18.40;99.90;;;;;;5034326;28;19909;-88
2021/07/28 04:08:19;;;;;;;;;;;18.40;99.90;;;;;;5034399;28;20007;-89
2021/07/28 04:10:46;;;;;;;;;;;18.40;99.90;;;;;;5035108;28;20362;-88
2021/07/28 04:13:11;;;;;;;;;;;18.30;99.90;;;;;;5034296;28;19916;-88
2021/07/28 04:15:37;;;;;;;;;;;18.30;99.90;;;;;;5034148;28;19909;-88
2021/07/28 04:18:02;;;;;;;;;;;18.30;99.90;;;;;;5034039;28;19909;-88
2021/07/28 04:20:28;;;;;;;;;;;18.30;99.90;;;;;;5033612;28;19909;-88
2021/07/28 04:22:53;;;;;;;;;;;18.40;99.90;;;;;;5034031;28;20011;-88
2021/07/28 04:25:19;;;;;;;;;;;18.40;99.90;;;;;;5033825;28;20308;-88
2021/07/28 04:27:44;;;;;;;;;;;18.40;99.90;;;;;;5035056;28;19909;-88
2021/07/28 04:30:10;;;;;;;;;;;18.40;99.90;;;;;;5033390;28;20377;-88
2021/07/28 04:32:36;;;;;;;;;;;18.40;99.90;;;;;;5034714;28;19909;-87
2021/07/28 04:35:01;;;;;;;;;;;18.40;99.90;;;;;;5033755;28;19909;-88
2021/07/28 04:37:27;;;;;;;;;;;18.40;99.90;;;;;;5035015;28;19936;-89
2021/07/28 04:39:53;;;;;;;;;;;18.40;99.90;;;;;;5034544;28;19909;-87
2021/07/28 04:42:18;;;;;;;;;;;18.40;99.90;;;;;;5033767;28;19909;-88
2021/07/28 04:44:43;;;;;;;;;;;18.40;99.90;;;;;;5033581;28;19964;-88
2021/07/28 04:47:09;;;;;;;;;;;18.40;99.90;;;;;;5033521;28;19975;-88
2021/07/28 04:49:34;;;;;;;;;;;18.40;99.90;;;;;;5033089;28;19909;-88
2021/07/28 04:52:00;;;;;;;;;;;18.40;99.90;;;;;;5033604;28;19944;-88
2021/07/28 04:54:25;;;;;;;;;;;18.50;99.90;;;;;;5034668;28;20337;-88
2021/07/28 04:56:51;;;;;;;;;;;18.50;99.90;;;;;;5033431;28;19954;-89
2021/07/28 04:59:16;;;;;;;;;;;18.50;99.90;;;;;;5033126;28;19940;-88
2021/07/28 05:01:43;;;;;;;;;;;18.50;99.90;;;;;;5033137;28;19958;-88
2021/07/28 05:04:09;;;;;;;;;;;18.50;99.90;;;;;;5033199;28;20398;-89
2021/07/28 05:06:36;;;;;;;;;;;18.50;99.90;;;;;;5034421;28;19909;-88
2021/07/28 05:09:01;;;;;;;;;;;18.50;99.90;;;;;;5032743;28;19913;-89
2021/07/28 05:11:27;;;;;;;;;;;18.50;99.90;;;;;;5033345;28;19963;-88
2021/07/28 05:13:52;;;;;;;;;;;18.50;99.90;;;;;;5033187;28;19909;-89
2021/07/28 05:25:39;;;;;;;;;;;18.50;99.90;;;;;;5034102;28;19967;-87
2021/07/28 05:31:08;;;;;;;;;;;18.50;99.90;;;;;;5034680;28;19928;-88
2021/07/28 05:33:33;;;;;;;;;;;18.50;99.90;;;;;;5033543;28;20281;-88
2021/07/28 05:35:59;;;;;;;;;;;18.60;99.90;;;;;;5032976;28;19913;-87
2021/07/28 05:38:24;;;;;;;;;;;18.60;99.90;;;;;;5033480;28;19909;-88
2021/07/28 05:40:55;;;;;;;;;;;18.60;99.90;;;;;;5032811;28;19924;-88
2021/07/28 05:43:20;;;;;;;;;;;18.60;99.90;;;;;;5034346;28;20010;-88
2021/07/28 05:45:48;;;;;;;;;;;18.70;99.90;;;;;;5032998;28;20386;-88
2021/07/28 05:48:14;;;;;;;;;;;18.70;99.90;;;;;;5033193;28;19916;-87
2021/07/28 05:50:39;;;;;;;;;;;18.70;99.90;;;;;;5032716;28;19913;-88
2021/07/28 05:53:05;;;;;;;;;;;18.80;99.90;;;;;;5033103;28;19959;-88
2021/07/28 05:55:30;;;;;;;;;;;18.80;99.90;;;;;;5032848;28;20247;-88
2021/07/28 05:57:58;;;;;;;;;;;18.80;99.90;;;;;;5034939;28;19941;-88
2021/07/28 06:00:24;;;;;;;;;;;18.80;99.90;;;;;;5033488;28;19909;-88
2021/07/28 06:02:49;;;;;;;;;;;18.80;99.90;;;;;;5032653;28;19970;-88
2021/07/28 06:05:15;;;;;;;;;;;18.80;99.90;;;;;;5032898;28;19939;-88
2021/07/28 06:07:40;;;;;;;;;;;18.80;99.90;;;;;;5033244;28;19951;-88
2021/07/28 06:10:06;;;;;;;;;;;18.80;99.90;;;;;;5032712;28;19931;-88
2021/07/28 06:12:32;;;;;;;;;;;18.80;99.90;;;;;;5034678;28;19916;-88
2021/07/28 06:14:57;;;;;;;;;;;18.80;99.90;;;;;;5037322;28;19932;-88
2021/07/28 06:17:23;;;;;;;;;;;18.80;99.90;;;;;;5037782;28;19916;-88
2021/07/28 06:19:48;;;;;;;;;;;18.80;99.90;;;;;;5035623;28;19956;-88
2021/07/28 06:22:14;;;;;;;;;;;18.80;99.90;;;;;;5036763;28;19956;-87
2021/07/28 06:24:39;;;;;;;;;;;18.90;99.90;;;;;;5037261;28;19917;-88
2021/07/28 06:27:05;;;;;;;;;;;18.90;99.90;;;;;;5032947;28;19916;-88
2021/07/28 06:29:31;;;;;;;;;;;18.90;99.90;;;;;;5033373;28;19909;-88
2021/07/28 06:31:56;;;;;;;;;;;18.90;99.90;;;;;;5033906;28;20366;-88
2021/07/28 06:34:22;;;;;;;;;;;18.90;99.90;;;;;;5033948;28;20350;-88
2021/07/28 06:36:47;;;;;;;;;;;18.90;99.90;;;;;;5033443;28;19916;-88
2021/07/28 06:39:13;;;;;;;;;;;18.90;99.90;;;;;;5032193;28;19913;-88
2021/07/28 06:41:38;;;;;;;;;;;19.00;99.90;;;;;;5033805;28;20329;-88
2021/07/28 06:44:04;;;;;;;;;;;19.00;99.90;;;;;;5033674;28;19972;-88
2021/07/28 06:46:29;;;;;;;;;;;19.00;99.90;;;;;;5033824;28;19916;-88
2021/07/28 06:48:55;;;;;;;;;;;19.00;99.90;;;;;;5032297;28;19913;-88
2021/07/28 06:51:20;;;;;;;;;;;19.00;99.90;;;;;;5032191;28;19909;-88
2021/07/28 06:53:46;;;;;;;;;;;19.00;99.90;;;;;;5032658;28;19913;-87
2021/07/28 06:56:13;;;;;;;;;;;19.00;99.90;;;;;;5032190;28;19913;-87
2021/07/28 06:58:39;;;;;;;;;;;19.00;99.90;;;;;;5032392;28;20344;-88
2021/07/28 07:01:07;;;;;;;;;;;19.00;99.90;;;;;;5033075;28;19941;-88
2021/07/28 07:03:33;;;;;;;;;;;18.90;99.90;;;;;;5033600;28;19909;-88
2021/07/28 07:05:58;;;;;;;;;;;18.90;99.90;;;;;;5032196;28;19917;-88
2021/07/28 07:08:24;;;;;;;;;;;18.90;99.90;;;;;;5033492;28;20059;-88
2021/07/28 07:10:49;;;;;;;;;;;18.80;99.90;;;;;;5033288;28;19913;-88
2021/07/28 07:13:14;;;;;;;;;;;18.80;99.90;;;;;;5033628;28;19971;-88
2021/07/28 07:15:40;;;;;;;;;;;18.80;99.90;;;;;;5032266;28;19909;-88
2021/07/28 07:18:05;;;;;;;;;;;18.70;99.90;;;;;;5033717;28;19913;-88
2021/07/28 07:20:31;;;;;;;;;;;18.70;99.90;;;;;;5031764;28;19913;-88
2021/07/28 07:22:56;;;;;;;;;;;18.70;99.90;;;;;;5033517;28;19963;-88
2021/07/28 07:25:22;;;;;;;;;;;18.80;99.90;;;;;;5032915;28;19920;-88
2021/07/28 07:27:47;;;;;;;;;;;18.80;99.90;;;;;;5037779;28;20425;-88
2021/07/28 07:30:13;;;;;;;;;;;18.90;99.90;;;;;;5035721;28;19935;-88
2021/07/28 07:32:38;;;;;;;;;;;19.00;99.90;;;;;;5037741;28;19909;-88
2021/07/28 07:35:04;;;;;;;;;;;19.00;99.90;;;;;;5036196;28;19932;-88
2021/07/28 07:37:30;;;;;;;;;;;19.10;99.90;;;;;;5035851;28;19917;-88
2021/07/28 07:39:55;;;;;;;;;;;19.10;99.90;;;;;;5035725;28;20003;-88
2021/07/28 07:42:21;;;;;;;;;;;19.20;99.90;;;;;;5036218;28;19909;-88
2021/07/28 07:44:48;;;;;;;;;;;19.20;99.90;;;;;;5035941;28;19917;-88
2021/07/28 07:47:13;;;;;;;;;;;19.10;99.90;;;;;;5037275;28;20055;-88
2021/07/28 07:49:39;;;;;;;;;;;19.10;99.90;;;;;;5034936;28;19960;-88
2021/07/28 07:52:05;;;;;;;;;;;18.90;99.90;;;;;;5035062;28;19910;-87
2021/07/28 07:54:30;;;;;;;;;;;18.80;99.90;;;;;;5035209;28;19909;-87
2021/07/28 07:56:56;;;;;;;;;;;18.80;99.90;;;;;;5034849;28;19913;-88
2021/07/28 07:59:21;;;;;;;;;;;18.70;99.90;;;;;;5034453;28;20421;-87
2021/07/28 08:01:47;;;;;;;;;;;18.70;99.90;;;;;;5035051;28;19917;-87
2021/07/28 08:04:12;;;;;;;;;;;18.60;99.90;;;;;;5035175;28;20017;-88
2021/07/28 08:06:38;;;;;;;;;;;18.60;99.90;;;;;;5034908;28;19909;-88
2021/07/28 08:09:03;;;;;;;;;;;18.70;99.90;;;;;;5034814;28;20305;-87
2021/07/28 08:11:29;;;;;;;;;;;18.70;99.90;;;;;;5035703;28;19920;-87
2021/07/28 08:13:54;;;;;;;;;;;18.80;99.90;;;;;;5035864;28;19916;-87
2021/07/28 08:16:20;;;;;;;;;;;18.80;99.90;;;;;;5034494;28;19910;-88
2021/07/28 08:18:46;;;;;;;;;;;18.90;99.90;;;;;;5035521;28;19909;-87
2021/07/28 08:21:12;;;;;;;;;;;19.00;99.90;;;;;;5034334;28;20331;-88
2021/07/28 08:23:39;;;;;;;;;;;19.10;99.90;;;;;;5034466;28;20031;-88
2021/07/28 08:26:05;;;;;;;;;;;19.20;99.90;;;;;;5035345;28;19917;-87
2021/07/28 08:28:30;;;;;;;;;;;19.20;99.90;;;;;;5035098;28;19909;-88
2021/07/28 08:30:56;;;;;;;;;;;19.30;99.90;;;;;;5033797;28;19917;-88
2021/07/28 08:33:22;;;;;;;;;;;19.40;99.90;;;;;;5034189;28;19909;-87
2021/07/28 08:35:48;;;;;;;;;;;19.40;99.90;;;;;;5034106;28;19909;-88
2021/07/28 08:38:14;;;;;;;;;;;19.40;99.90;;;;;;5033511;28;19958;-87
2021/07/28 08:40:41;;;;;;;;;;;19.40;99.90;;;;;;5033808;28;20015;-87
2021/07/28 08:43:07;;;;;;;;;;;19.40;99.90;;;;;;5033748;28;19913;-89
2021/07/28 08:45:33;;;;;;;;;;;19.40;99.90;;;;;;5033805;28;19913;-88
2021/07/28 08:47:58;;;;;;;;;;;19.40;99.90;;;;;;5033685;28;19915;-87
2021/07/28 08:50:26;;;;;;;;;;;19.40;99.90;;;;;;5033755;28;19913;-88
2021/07/28 08:52:52;;;;;;;;;;;19.40;99.90;;;;;;5033681;28;19909;-87
2021/07/28 08:55:20;;;;;;;;;;;19.40;99.90;;;;;;5033703;28;19935;-88
2021/07/28 08:57:45;;;;;;;;;;;19.40;99.90;;;;;;5033446;28;19932;-87
2021/07/28 09:00:12;;;;;;;;;;;19.40;99.90;;;;;;5033564;28;19909;-88
2021/07/28 09:02:39;;;;;;;;;;;19.30;99.90;;;;;;5033445;28;19909;-88
2021/07/28 09:05:04;;;;;;;;;;;19.30;99.90;;;;;;5033413;28;19936;-88
2021/07/28 09:07:36;;;;;;;;;;;19.30;99.90;;;;;;5033285;28;20362;-88
2021/07/28 09:10:01;;;;;;;;;;;19.30;99.90;;;;;;5033555;28;19916;-88
2021/07/28 09:12:31;;;;;;;;;;;19.30;99.90;;;;;;5033208;28;20316;-88
2021/07/28 09:15:01;;;;;;;;;;;19.30;99.90;;;;;;5033242;28;19916;-88
2021/07/28 09:17:27;;;;;;;;;;;19.30;99.90;;;;;;5033077;28;20008;-88
2021/07/28 09:23:12;;;;;;;;;;;19.30;99.90;;;;;;5038686;28;19954;-88
2021/07/28 09:25:40;;;;;;;;;;;19.30;99.90;;;;;;5038768;28;19963;-87
2021/07/28 09:28:17;;;;;;;;;;;19.40;99.90;;;;;;5040747;28;19932;-88
2021/07/28 09:30:42;;;;;;;;;;;19.40;99.90;;;;;;5040619;28;19932;-88
2021/07/28 09:33:10;;;;;;;;;;;19.40;99.90;;;;;;5035347;28;19913;-88
2021/07/28 09:36:08;;;;;;;;;;;19.40;99.90;;;;;;5033080;28;20312;-88
2021/07/28 09:38:42;;;;;;;;;;;19.50;99.90;;;;;;4979165;28;19998;-89
2021/07/28 09:41:17;;;;;;;;;;;19.60;99.90;;;;;;5032393;28;19913;-88
2021/07/28 09:43:47;;;;;;;;;;;19.60;99.90;;;;;;5032630;28;19913;-87
2021/07/28 09:46:26;;;;;;;;;;;19.60;99.90;;;;;;5032601;28;20259;-88
2021/07/28 09:48:52;;;;;;;;;;;19.60;99.90;;;;;;5032921;28;19910;-88
2021/07/28 09:51:22;;;;;;;;;;;19.60;99.90;;;;;;5032637;28;19909;-87
2021/07/28 09:53:51;;;;;;;;;;;19.60;99.90;;;;;;5032727;28;19971;-87
2021/07/28 09:56:40;;;;;;;;;;;19.70;99.90;;;;;;5032399;28;20437;-88
2021/07/28 09:59:06;;;;;;;;;;;19.70;99.90;;;;;;5019320;28;19940;-88
2021/07/28 10:01:33;;;;;;;;;;;19.70;99.90;;;;;;5033675;28;19913;-87
2021/07/28 10:03:59;;;;;;;;;;;19.80;99.90;;;;;;5032204;28;19909;-88
2021/07/28 10:06:29;;;;;;;;;;;19.80;99.90;;;;;;5032712;28;19910;-88
2021/07/28 10:08:56;;;;;;;;;;;19.90;99.90;;;;;;5032308;28;20396;-88
2021/07/28 10:11:24;;;;;;;;;;;19.90;99.90;;;;;;5033373;28;19909;-88
2021/07/28 10:13:51;;;;;;;;;;;19.90;99.90;;;;;;5032292;28;19913;-88
2021/07/28 10:16:17;;;;;;;;;;;20.00;99.90;;;;;;5033385;28;19909;-88
2021/07/28 10:18:44;;;;;;;;;;;20.00;99.90;;;;;;5032033;28;19909;-88
2021/07/28 10:21:10;;;;;;;;;;;20.00;99.90;;;;;;5031908;28;19944;-88
2021/07/28 10:23:36;;;;;;;;;;;20.00;99.90;;;;;;5031882;28;20368;-88
2021/07/28 10:26:02;;;;;;;;;;;20.00;99.90;;;;;;5031941;28;19914;-87
2021/07/28 10:28:27;;;;;;;;;;;20.10;99.50;;;;;;5031895;28;19909;-88
2021/07/28 10:31:10;;;;;;;;;;;20.10;99.80;;;;;;5031478;28;19966;-87
2021/07/28 10:33:44;;;;;;;;;;;20.10;99.40;;;;;;5031906;28;19909;-88
2021/07/28 10:36:09;;;;;;;;;;;20.00;99.40;;;;;;5031844;28;19924;-88
2021/07/28 10:38:48;;;;;;;;;;;20.00;99.30;;;;;;5031851;28;19908;-88
2021/07/28 10:41:34;;;;;;;;;;;20.10;98.30;;;;;;5031939;28;19909;-87
2021/07/28 10:44:10;;;;;;;;;;;20.10;98.20;;;;;;5031653;28;19913;-88
2021/07/28 10:47:12;;;;;;;;;;;20.10;98.00;;;;;;5031784;28;19916;-88
2021/07/28 10:49:38;;;;;;;;;;;20.10;97.70;;;;;;4936418;29;19910;-88
2021/07/28 10:52:05;;;;;;;;;;;20.10;97.90;;;;;;5016691;28;19910;-88
2021/07/28 10:54:46;;;;;;;;;;;20.20;97.60;;;;;;5032781;28;19916;-88
2021/07/28 10:57:44;;;;;;;;;;;20.30;96.80;;;;;;5031492;28;19917;-88
2021/07/28 11:00:10;;;;;;;;;;;20.50;95.70;;;;;;4947296;28;19974;-88
2021/07/28 11:02:51;;;;;;;;;;;20.60;96.10;;;;;;5031551;28;19909;-88
2021/07/28 11:05:23;;;;;;;;;;;20.80;95.00;;;;;;5031399;28;19949;-88
2021/07/28 11:08:07;;;;;;;;;;;20.90;94.80;;;;;;5031368;28;19909;-88
2021/07/28 11:10:32;;;;;;;;;;;20.90;93.90;;;;;;5031405;28;19909;-88
2021/07/28 11:12:59;;;;;;;;;;;21.00;94.10;;;;;;5031404;28;19916;-88
2021/07/28 11:15:28;;;;;;;;;;;21.00;93.90;;;;;;5031444;28;19909;-88
2021/07/28 11:17:57;;;;;;;;;;;21.10;92.90;;;;;;5031654;28;19909;-88
2021/07/28 11:20:29;;;;;;;;;;;21.20;92.70;;;;;;5031473;28;19910;-88
2021/07/28 11:23:18;;;;;;;;;;;21.20;92.50;;;;;;5031663;28;20332;-87
2021/07/28 11:25:43;;;;;;;;;;;21.20;92.60;;;;;;5030961;28;19913;-88
2021/07/28 11:28:09;;;;;;;;;;;21.20;92.20;;;;;;5031138;28;20055;-87
2021/07/28 11:30:34;;;;;;;;;;;21.30;92.20;;;;;;5031315;28;19928;-88
2021/07/28 11:33:26;;;;;;;;;;;21.40;91.80;;;;;;5030853;28;19910;-88
2021/07/28 11:35:53;;;;;;;;;;;21.50;91.70;;;;;;5026043;28;19909;-88
2021/07/28 11:38:30;;;;;;;;;;;21.50;92.00;;;;;;5030683;28;19909;-88
2021/07/28 11:40:57;;;;;;;;;;;21.60;92.40;;;;;;5030369;28;19922;-88
2021/07/28 11:43:28;;;;;;;;;;;21.70;90.80;;;;;;5030766;28;19910;-87
2021/07/28 11:45:54;;;;;;;;;;;21.80;90.80;;;;;;5032133;28;19916;-88
2021/07/28 11:48:33;;;;;;;;;;;21.80;90.20;;;;;;5031859;28;19913;-88
2021/07/28 11:51:00;;;;;;;;;;;21.80;89.50;;;;;;5031624;28;19916;-88
2021/07/28 11:53:26;;;;;;;;;;;21.80;89.70;;;;;;5030822;28;19991;-88
2021/07/28 11:56:04;;;;;;;;;;;21.90;89.80;;;;;;5030628;28;19990;-88
2021/07/28 11:58:30;;;;;;;;;;;22.00;89.30;;;;;;5031778;28;20305;-87
2021/07/28 12:00:55;;;;;;;;;;;22.10;89.60;;;;;;5030000;28;20004;-88
2021/07/28 12:03:21;;;;;;;;;;;22.20;88.50;;;;;;5031810;28;19910;-88
2021/07/28 12:06:00;;;;;;;;;;;22.20;87.80;;;;;;5031522;28;19936;-87
2021/07/28 12:08:29;;;;;;;;;;;22.20;88.20;;;;;;5032024;28;19955;-88
2021/07/28 12:11:06;;;;;;;;;;;22.10;88.00;;;;;;5031673;28;19916;-87
2021/07/28 12:13:42;;;;;;;;;;;22.10;86.80;;;;;;5034682;28;20290;-88
2021/07/28 12:16:07;;;;;;;;;;;22.10;87.60;;;;;;5034197;28;19913;-89
2021/07/28 12:18:43;;;;;;;;;;;22.00;87.70;;;;;;5034321;28;19916;-88
2021/07/28 12:21:09;;;;;;;;;;;22.00;85.80;;;;;;5034861;28;19956;-88
2021/07/28 12:23:35;;;;;;;;;;;22.10;86.20;;;;;;5034068;28;19913;-87
2021/07/28 12:26:00;;;;;;;;;;;22.10;84.30;;;;;;5034408;28;19916;-88
2021/07/28 12:28:45;;;;;;;;;;;22.20;83.60;;;;;;5033846;28;19932;-87
2021/07/28 12:31:23;;;;;;;;;;;22.20;84.60;;;;;;5033415;28;19921;-88
2021/07/28 12:33:48;;;;;;;;;;;22.30;83.70;;;;;;5033891;28;19909;-88
2021/07/28 12:36:24;;;;;;;;;;;22.30;84.20;;;;;;5034967;28;20369;-88
2021/07/28 12:38:49;;;;;;;;;;;22.40;83.20;;;;;;5034604;28;19913;-88
2021/07/28 12:41:16;;;;;;;;;;;22.40;82.60;;;;;;5033478;28;19956;-88
2021/07/28 12:43:41;;;;;;;;;;;22.40;83.10;;;;;;5035060;28;20196;-88
2021/07/28 12:46:09;;;;;;;;;;;22.40;83.90;;;;;;5033761;28;19996;-87
2021/07/28 12:48:36;;;;;;;;;;;22.30;82.10;;;;;;5033680;28;19909;-88
2021/07/28 12:51:02;;;;;;;;;;;22.40;83.10;;;;;;5033053;28;20000;-88
2021/07/28 12:53:29;;;;;;;;;;;22.40;83.10;;;;;;5033471;28;19909;-88
2021/07/28 12:55:55;;;;;;;;;;;22.40;81.70;;;;;;5034707;28;19913;-89
2021/07/28 12:58:21;;;;;;;;;;;22.50;80.90;;;;;;5033217;28;20370;-88
2021/07/28 13:00:46;;;;;;;;;;;22.60;82.00;;;;;;5032881;28;19909;-89
2021/07/28 13:03:15;;;;;;;;;;;22.60;82.00;;;;;;5033175;28;19909;-88
2021/07/28 13:05:42;;;;;;;;;;;22.70;81.50;;;;;;5033272;28;19913;-88
2021/07/28 13:08:08;;;;;;;;;;;22.70;81.40;;;;;;5033104;28;19909;-87
2021/07/28 13:10:35;;;;;;;;;;;22.60;80.80;;;;;;5034146;28;20389;-88
2021/07/28 13:13:01;;;;;;;;;;;22.70;78.90;;;;;;5032914;28;19948;-88
2021/07/28 13:15:26;;;;;;;;;;;22.70;79.90;;;;;;5033106;28;19982;-89
2021/07/28 13:17:53;;;;;;;;;;;22.60;81.10;;;;;;5033080;28;20370;-88
2021/07/28 13:20:18;;;;;;;;;;;22.70;80.20;;;;;;5032523;28;19983;-87
2021/07/28 13:22:44;;;;;;;;;;;22.60;79.50;;;;;;5034118;28;19910;-88
2021/07/28 13:25:10;;;;;;;;;;;22.60;80.60;;;;;;5034091;28;19913;-88
2021/07/28 13:27:36;;;;;;;;;;;22.60;80.10;;;;;;5032781;28;19959;-88
2021/07/28 13:30:02;;;;;;;;;;;22.50;80.80;;;;;;5033867;28;20289;-87
2021/07/28 13:32:27;;;;;;;;;;;22.50;81.70;;;;;;5032688;28;19916;-88
2021/07/28 13:34:53;;;;;;;;;;;22.50;81.80;;;;;;5032694;28;19920;-87
2021/07/28 13:37:18;;;;;;;;;;;22.40;82.10;;;;;;5032493;28;19910;-88
2021/07/28 13:39:44;;;;;;;;;;;22.50;81.60;;;;;;5032271;28;19909;-87
2021/07/28 13:42:09;;;;;;;;;;;22.50;82.20;;;;;;5032546;28;19962;-88
2021/07/28 13:44:35;;;;;;;;;;;22.50;80.50;;;;;;5034014;28;19931;-88
2021/07/28 13:47:03;;;;;;;;;;;22.60;79.70;;;;;;5034183;28;19909;-88
2021/07/28 13:49:28;;;;;;;;;;;22.60;80.20;;;;;;5033814;28;19948;-88
2021/07/28 13:51:54;;;;;;;;;;;22.60;80.30;;;;;;5032389;28;19940;-87
2021/07/28 13:54:19;;;;;;;;;;;22.70;79.70;;;;;;5032226;28;20381;-88
2021/07/28 13:57:05;;;;;;;;;;;22.70;79.30;;;;;;5032336;28;20000;-88
2021/07/28 13:59:30;;;;;;;;;;;22.70;80.20;;;;;;5031478;28;19995;-88
2021/07/28 14:01:56;;;;;;;;;;;22.70;81.30;;;;;;5032053;28;20405;-88
2021/07/28 14:04:21;;;;;;;;;;;22.80;79.60;;;;;;5032353;28;19981;-88
2021/07/28 14:06:47;;;;;;;;;;;22.90;80.40;;;;;;5033349;28;20420;-88
2021/07/28 14:09:12;;;;;;;;;;;22.80;79.40;;;;;;5032877;28;19912;-89
2021/07/28 14:11:38;;;;;;;;;;;22.90;79.00;;;;;;5032197;28;19913;-88
2021/07/28 14:14:03;;;;;;;;;;;23.10;78.80;;;;;;5032099;28;20360;-88
2021/07/28 14:16:29;;;;;;;;;;;23.10;78.10;;;;;;5032054;28;20548;-89
2021/07/28 14:18:54;;;;;;;;;;;23.20;78.60;;;;;;5034199;28;19913;-88
2021/07/28 14:21:20;;;;;;;;;;;23.30;77.70;;;;;;5035347;28;19920;-88
2021/07/28 14:23:45;;;;;;;;;;;23.30;77.40;;;;;;5034402;28;19984;-88
2021/07/28 14:26:11;;;;;;;;;;;23.40;76.50;;;;;;5036280;28;19909;-88
2021/07/28 14:28:36;;;;;;;;;;;23.40;76.90;;;;;;5034787;28;19909;-88
2021/07/28 14:31:01;;;;;;;;;;;23.50;77.20;;;;;;5033188;28;20396;-88
2021/07/28 14:33:27;;;;;;;;;;;23.70;75.80;;;;;;5031503;28;19913;-88
2021/07/28 14:35:52;;;;;;;;;;;24.00;73.80;;;;;;5031136;28;19912;-88